Time;durP1;ratioP1;P1;durP2;ratioP2;P2;SDS_P1;SDS_P2;PMS_P1;PMS_P2;Temp;Humidity;BMP_temperature;BMP_pressure;BME280_temperature;BME280_humidity;BME280_pressure;Samples;Min_cycle;Max_cycle;Signal;HPM_P1;HPM_P2
2022/03/03 00:00:33;;;;;;;0.60;0.10;;;4.00;99.90;;;;;;4920142;29;20798;-73
2022/03/03 00:03:01;;;;;;;0.50;0.10;;;4.00;99.90;;;;;;4938726;29;20468;-73
2022/03/03 00:05:29;;;;;;;0.50;0.10;;;4.00;99.90;;;;;;4937578;29;20463;-73
2022/03/03 00:07:57;;;;;;;0.50;0.10;;;4.00;99.90;;;;;;4939486;29;20526;-72
2022/03/03 00:10:28;;;;;;;0.50;0.10;;;4.00;99.90;;;;;;4927314;29;20545;-74
2022/03/03 00:12:55;;;;;;;0.50;0.10;;;4.00;99.90;;;;;;4918915;29;20464;-73
2022/03/03 00:15:23;;;;;;;0.50;0.10;;;4.00;99.90;;;;;;4919259;29;20467;-73
2022/03/03 00:17:51;;;;;;;0.50;0.10;;;4.00;99.90;;;;;;4919712;29;20471;-73
2022/03/03 00:20:19;;;;;;;12.50;11.50;;;3.90;99.90;;;;;;4919664;29;20481;-72
2022/03/03 00:22:47;;;;;;;0.50;0.10;;;3.90;99.90;;;;;;4919193;29;20484;-73
2022/03/03 00:25:17;;;;;;;0.50;0.10;;;3.90;99.90;;;;;;4917710;29;20454;-73
2022/03/03 00:27:46;;;;;;;0.50;0.10;;;3.90;99.90;;;;;;4918459;29;20481;-74
2022/03/03 00:30:14;;;;;;;0.50;0.10;;;3.90;99.90;;;;;;4918186;29;20456;-72
2022/03/03 00:32:43;;;;;;;0.50;0.10;;;3.90;99.90;;;;;;4918969;29;20469;-73
2022/03/03 00:35:12;;;;;;;0.60;0.10;;;3.90;99.90;;;;;;4918314;29;20479;-73
2022/03/03 00:37:41;;;;;;;0.50;0.10;;;3.90;99.90;;;;;;4918329;29;20441;-73
2022/03/03 00:40:10;;;;;;;0.50;0.10;;;4.00;99.90;;;;;;4930943;29;20469;-72
2022/03/03 00:42:38;;;;;;;0.50;0.10;;;3.90;99.90;;;;;;4935695;29;20473;-72
2022/03/03 00:45:08;;;;;;;0.50;0.10;;;3.90;99.90;;;;;;4934723;29;20786;-73
2022/03/03 00:47:36;;;;;;;0.50;0.10;;;3.80;99.90;;;;;;4935602;29;21024;-73
2022/03/03 00:50:05;;;;;;;0.50;0.10;;;3.80;99.90;;;;;;4945489;29;20465;-73
2022/03/03 00:52:33;;;;;;;0.50;0.10;;;3.70;99.90;;;;;;4937228;29;20487;-73
2022/03/03 00:55:01;;;;;;;0.50;0.10;;;3.80;99.90;;;;;;4936546;29;20480;-74
2022/03/03 00:57:30;;;;;;;0.50;0.10;;;3.80;99.90;;;;;;4936606;29;20489;-73
2022/03/03 00:59:58;;;;;;;0.50;0.10;;;3.80;99.90;;;;;;4924799;29;20466;-74
2022/03/03 01:02:27;;;;;;;0.50;0.10;;;4.90;99.90;;;;;;4919434;29;20473;-73
2022/03/03 01:04:55;;;;;;;0.50;0.10;;;3.80;99.90;;;;;;4919595;29;20441;-73
2022/03/03 01:07:24;;;;;;;10.43;4.80;;;3.80;99.90;;;;;;4917811;29;21002;-73
2022/03/03 01:09:52;;;;;;;0.50;0.10;;;3.80;99.90;;;;;;4918860;29;20854;-73
2022/03/03 01:12:19;;;;;;;0.50;0.10;;;3.70;99.90;;;;;;4921807;29;20475;-73
2022/03/03 01:14:48;;;;;;;0.50;0.10;;;3.70;99.90;;;;;;4926642;29;20456;-73
2022/03/03 01:17:16;;;;;;;0.50;0.10;;;3.70;99.90;;;;;;4924309;29;20449;-74
2022/03/03 01:19:45;;;;;;;0.50;0.10;;;3.70;99.90;;;;;;4934813;29;20481;-73
2022/03/03 01:22:14;;;;;;;0.50;0.10;;;3.90;99.90;;;;;;4937601;29;20475;-73
2022/03/03 01:24:42;;;;;;;0.50;0.10;;;4.00;99.90;;;;;;4944366;29;20450;-73
2022/03/03 01:27:10;;;;;;;0.50;0.10;;;3.90;99.90;;;;;;4946747;29;20479;-74
2022/03/03 01:29:38;;;;;;;0.50;0.20;;;3.80;99.90;;;;;;4933957;29;20462;-73
2022/03/03 01:32:07;;;;;;;0.50;0.10;;;3.70;99.90;;;;;;4922445;29;20998;-72
2022/03/03 01:34:37;;;;;;;0.50;0.10;;;3.70;99.90;;;;;;4918425;29;20587;-74
2022/03/03 01:37:06;;;;;;;0.50;0.10;;;3.80;99.90;;;;;;4917048;29;20446;-73
2022/03/03 01:39:34;;;;;;;0.50;0.10;;;3.70;99.90;;;;;;4928427;29;20459;-73
2022/03/03 01:42:02;;;;;;;2.47;2.37;;;3.80;99.90;;;;;;4937869;29;20546;-74
2022/03/03 01:44:30;;;;;;;0.50;0.10;;;3.70;99.90;;;;;;4946695;29;20993;-73
2022/03/03 01:47:00;;;;;;;0.50;0.10;;;3.60;99.90;;;;;;4955941;29;20483;-72
2022/03/03 01:49:28;;;;;;;0.50;0.10;;;3.50;99.90;;;;;;4936818;29;20465;-73
2022/03/03 01:51:56;;;;;;;0.50;0.10;;;3.40;99.90;;;;;;4919252;29;20490;-73
2022/03/03 01:54:25;;;;;;;0.50;0.10;;;3.40;99.90;;;;;;4919322;29;20447;-73
2022/03/03 01:56:53;;;;;;;0.50;0.20;;;3.30;99.90;;;;;;4919517;29;20455;-73
2022/03/03 01:59:21;;;;;;;0.50;0.10;;;3.20;99.90;;;;;;4925122;29;20450;-73
2022/03/03 02:01:49;;;;;;;0.50;0.10;;;3.20;99.90;;;;;;4936597;29;20465;-73
2022/03/03 02:04:17;;;;;;;0.50;0.10;;;3.20;99.90;;;;;;4936101;29;20449;-73
2022/03/03 02:06:45;;;;;;;0.50;0.10;;;3.20;99.90;;;;;;4936051;29;20542;-74
2022/03/03 02:09:13;;;;;;;0.50;0.10;;;3.10;99.90;;;;;;4928466;29;20453;-73
2022/03/03 02:11:44;;;;;;;0.50;0.10;;;3.10;99.90;;;;;;4917328;29;20478;-72
2022/03/03 02:14:12;;;;;;;0.50;0.10;;;3.10;99.90;;;;;;4917545;29;20450;-73
2022/03/03 02:16:40;;;;;;;0.50;0.20;;;3.00;99.90;;;;;;4917330;29;20441;-73
2022/03/03 02:19:08;;;;;;;0.50;0.10;;;3.00;99.90;;;;;;4917013;29;20959;-73
2022/03/03 02:21:37;;;;;;;0.50;0.20;;;2.90;99.90;;;;;;4917215;29;20971;-73
2022/03/03 02:24:07;;;;;;;0.50;0.10;;;3.00;99.90;;;;;;4917586;29;20548;-73
2022/03/03 02:26:39;;;;;;;0.50;0.10;;;3.00;99.90;;;;;;4917049;29;20495;-73
2022/03/03 02:29:07;;;;;;;0.50;0.10;;;3.00;99.90;;;;;;4918890;29;20965;-73
2022/03/03 02:31:35;;;;;;;3.60;1.43;;;3.00;99.90;;;;;;4922273;29;20474;-73
2022/03/03 02:34:04;;;;;;;0.50;0.10;;;3.00;99.90;;;;;;4916660;29;20496;-73
2022/03/03 02:36:31;;;;;;;0.50;0.10;;;3.10;99.90;;;;;;4924069;29;20446;-73
2022/03/03 02:39:03;;;;;;;0.50;0.10;;;3.00;99.90;;;;;;4936037;29;20448;-73
2022/03/03 02:41:31;;;;;;;0.50;0.10;;;2.90;99.90;;;;;;4931187;29;20475;-73
2022/03/03 02:44:00;;;;;;;1.77;0.83;;;2.90;99.90;;;;;;4935065;29;20453;-74
2022/03/03 02:46:28;;;;;;;0.50;0.10;;;2.90;99.90;;;;;;4928304;29;20450;-73
2022/03/03 02:48:57;;;;;;;0.50;0.10;;;2.90;99.90;;;;;;4937234;29;20495;-73
2022/03/03 02:51:25;;;;;;;0.50;0.10;;;2.70;99.90;;;;;;4948219;29;20470;-74
2022/03/03 02:53:53;;;;;;;0.50;0.10;;;2.70;99.90;;;;;;4954909;29;20448;-73
2022/03/03 02:56:23;;;;;;;4.90;4.70;;;2.60;99.90;;;;;;4947536;29;20950;-74
2022/03/03 02:58:51;;;;;;;0.50;0.10;;;2.60;99.90;;;;;;4933788;29;20456;-73
2022/03/03 03:01:19;;;;;;;2.80;2.63;;;2.60;99.90;;;;;;4946694;29;20470;-73
2022/03/03 03:03:47;;;;;;;0.50;0.10;;;2.60;99.90;;;;;;4954043;29;20454;-73
2022/03/03 03:06:15;;;;;;;0.50;0.10;;;2.60;99.90;;;;;;4948186;29;20970;-72
2022/03/03 03:08:43;;;;;;;0.50;0.10;;;2.60;99.90;;;;;;4928155;29;20503;-74
2022/03/03 03:11:11;;;;;;;0.50;0.10;;;2.60;99.90;;;;;;4920174;29;20816;-73
2022/03/03 03:13:40;;;;;;;0.50;0.10;;;2.60;99.90;;;;;;4917409;29;20952;-73
2022/03/03 03:16:08;;;;;;;0.50;0.10;;;2.60;99.90;;;;;;4920535;29;20514;-73
2022/03/03 03:18:36;;;;;;;0.50;0.10;;;2.60;99.90;;;;;;4936115;29;20448;-73
2022/03/03 03:21:04;;;;;;;0.50;0.20;;;2.60;99.90;;;;;;4935951;29;20510;-72
2022/03/03 03:23:32;;;;;;;13.33;8.90;;;2.60;99.90;;;;;;4937757;29;20456;-72
2022/03/03 03:25:59;;;;;;;0.50;0.20;;;2.70;99.90;;;;;;4936782;29;20444;-73
2022/03/03 03:28:27;;;;;;;0.50;0.10;;;2.70;99.90;;;;;;4938000;29;20488;-72
2022/03/03 03:30:56;;;;;;;1.93;1.80;;;2.70;99.90;;;;;;4937831;29;20452;-73
2022/03/03 03:33:25;;;;;;;0.60;0.27;;;2.60;99.90;;;;;;4928969;29;20455;-73
2022/03/03 03:35:52;;;;;;;0.50;0.20;;;2.60;99.90;;;;;;4924346;29;20459;-72
2022/03/03 03:38:20;;;;;;;0.80;0.47;;;2.50;99.90;;;;;;4938392;29;20954;-72
2022/03/03 03:40:48;;;;;;;0.50;0.20;;;2.50;99.90;;;;;;4938538;29;20475;-73
2022/03/03 03:43:16;;;;;;;0.60;0.60;;;2.50;99.90;;;;;;4937993;29;20822;-73
2022/03/03 03:45:44;;;;;;;4.20;2.20;;;2.40;99.90;;;;;;4937387;29;20819;-72
2022/03/03 03:48:13;;;;;;;0.50;0.10;;;2.40;99.90;;;;;;4917850;29;20492;-73
2022/03/03 03:50:41;;;;;;;0.50;0.20;;;2.40;99.90;;;;;;4918981;29;20613;-74
2022/03/03 03:53:10;;;;;;;0.50;0.20;;;2.40;99.90;;;;;;4980995;23;20505;-71
2022/03/03 03:55:37;;;;;;;0.50;0.10;;;2.30;99.90;;;;;;4959060;29;20526;-72
2022/03/03 03:58:05;;;;;;;0.50;0.10;;;2.30;99.90;;;;;;4958427;29;20439;-73
2022/03/03 04:00:33;;;;;;;0.50;0.10;;;2.30;99.90;;;;;;4957041;28;20956;-73
2022/03/03 04:03:02;;;;;;;0.60;0.20;;;;;;;;;;4974766;28;20462;-73
2022/03/03 04:05:31;;;;;;;0.50;0.30;;;2.30;99.90;;;;;;4977173;28;20449;-72
2022/03/03 04:07:59;;;;;;;0.50;0.10;;;2.30;99.90;;;;;;4958809;28;20456;-71
2022/03/03 04:10:28;;;;;;;0.50;0.10;;;2.40;99.90;;;;;;4957645;29;20545;-73
2022/03/03 04:12:56;;;;;;;0.50;0.10;;;2.30;99.90;;;;;;4958144;29;20555;-73
2022/03/03 04:15:24;;;;;;;0.50;0.10;;;2.30;99.90;;;;;;4957433;29;20451;-72
2022/03/03 04:17:52;;;;;;;0.50;0.10;;;2.20;99.90;;;;;;4942176;29;20478;-73
2022/03/03 04:20:22;;;;;;;0.50;0.10;;;2.20;99.90;;;;;;4937851;29;20452;-72
2022/03/03 04:22:51;;;;;;;0.50;0.10;;;2.20;99.90;;;;;;4940312;29;20467;-73
2022/03/03 04:25:19;;;;;;;0.50;0.10;;;2.20;99.90;;;;;;4942423;29;20949;-74
2022/03/03 04:27:47;;;;;;;1.73;1.60;;;2.30;99.90;;;;;;4956808;29;20477;-72
2022/03/03 04:30:17;;;;;;;0.50;0.10;;;2.30;99.90;;;;;;4959866;29;20577;-73
2022/03/03 04:32:44;;;;;;;0.50;0.10;;;2.40;99.90;;;;;;4957309;28;21064;-73
2022/03/03 04:35:12;;;;;;;0.50;0.10;;;2.30;99.90;;;;;;4957871;29;20455;-74
2022/03/03 04:37:41;;;;;;;0.50;0.10;;;2.30;99.90;;;;;;4944452;29;20475;-74
2022/03/03 04:40:10;;;;;;;0.50;0.10;;;2.30;99.90;;;;;;4939753;29;20447;-72
2022/03/03 04:42:38;;;;;;;0.50;0.10;;;2.30;99.90;;;;;;4939803;29;20502;-73
2022/03/03 04:45:07;;;;;;;0.50;0.10;;;2.30;99.90;;;;;;4939644;29;20444;-73
2022/03/03 04:47:35;;;;;;;21.30;19.60;;;2.40;99.90;;;;;;4952276;29;20455;-73
2022/03/03 04:50:04;;;;;;;0.50;0.10;;;2.30;99.90;;;;;;4958347;29;20857;-73
2022/03/03 04:52:32;;;;;;;1.07;0.97;;;2.30;99.90;;;;;;4957765;29;20520;-73
2022/03/03 04:55:00;;;;;;;0.50;0.30;;;2.40;99.90;;;;;;4959293;29;20457;-71
2022/03/03 04:57:29;;;;;;;0.50;0.10;;;2.40;99.90;;;;;;4947943;29;20543;-73
2022/03/03 04:59:57;;;;;;;3.70;1.17;;;2.40;99.90;;;;;;4939972;29;20451;-73
2022/03/03 05:02:26;;;;;;;1.37;0.73;;;2.40;99.90;;;;;;4940911;29;20543;-73
2022/03/03 05:04:54;;;;;;;1.73;1.43;;;2.30;99.90;;;;;;4940580;29;20528;-71
2022/03/03 05:07:22;;;;;;;0.50;0.10;;;2.10;99.90;;;;;;4950770;29;20459;-72
2022/03/03 05:09:50;;;;;;;0.60;0.40;;;2.10;99.90;;;;;;4958237;29;20554;-73
2022/03/03 05:12:18;;;;;;;0.50;0.10;;;2.10;99.90;;;;;;4957698;29;20470;-73
2022/03/03 05:14:47;;;;;;;0.50;0.20;;;2.10;99.90;;;;;;4958197;29;20459;-72
2022/03/03 05:17:15;;;;;;;0.50;0.10;;;2.10;99.90;;;;;;4948913;29;20452;-72
2022/03/03 05:19:43;;;;;;;0.50;0.10;;;2.00;99.90;;;;;;4961946;28;20462;-73
2022/03/03 05:22:11;;;;;;;0.50;0.10;;;2.00;99.90;;;;;;4965651;28;20913;-73
2022/03/03 05:24:39;;;;;;;0.50;0.20;;;2.10;99.90;;;;;;4959639;29;20475;-73
2022/03/03 05:27:07;;;;;;;0.73;0.73;;;2.10;99.90;;;;;;4959930;29;20569;-73
2022/03/03 05:29:35;;;;;;;0.50;0.10;;;2.10;99.90;;;;;;4959639;29;21005;-73
2022/03/03 05:32:04;;;;;;;0.50;0.10;;;2.00;99.90;;;;;;4956383;28;20868;-73
2022/03/03 05:34:33;;;;;;;2.10;2.00;;;2.00;99.90;;;;;;4964118;28;20954;-73
2022/03/03 05:37:01;;;;;;;0.50;0.10;;;2.00;99.90;;;;;;4973831;28;20474;-73
2022/03/03 05:39:31;;;;;;;0.50;0.10;;;1.90;99.90;;;;;;4975181;28;20471;-73
2022/03/03 05:41:59;;;;;;;4.40;4.00;;;2.00;99.90;;;;;;4965871;28;20477;-73
2022/03/03 05:44:29;;;;;;;0.50;0.10;;;2.00;99.90;;;;;;4939404;29;20448;-74
2022/03/03 05:46:57;;;;;;;1.10;0.80;;;2.00;99.90;;;;;;4954278;28;20552;-74
2022/03/03 05:49:27;;;;;;;0.73;0.73;;;2.00;99.90;;;;;;4966751;28;20215;-72
2022/03/03 05:51:55;;;;;;;0.50;0.10;;;2.00;99.90;;;;;;4973649;28;20547;-74
2022/03/03 05:54:23;;;;;;;0.50;0.10;;;2.00;99.90;;;;;;4955399;29;20946;-72
2022/03/03 05:56:53;;;;;;;0.50;0.20;;;2.00;99.90;;;;;;4957259;29;20466;-72
2022/03/03 05:59:23;;;;;;;0.50;0.10;;;1.90;99.90;;;;;;4959900;29;20435;-74
2022/03/03 06:01:52;;;;;;;0.50;0.10;;;1.90;99.90;;;;;;4955380;28;20467;-74
2022/03/03 06:04:25;;;;;;;0.50;0.10;;;;;;;;;;4954446;29;20463;-74
2022/03/03 06:06:59;;;;;;;0.80;0.40;;;1.90;99.90;;;;;;4946717;29;20551;-74
2022/03/03 06:09:32;;;;;;;0.60;0.27;;;1.90;99.90;;;;;;4948909;29;20489;-74
2022/03/03 06:12:06;;;;;;;0.50;0.10;;;1.90;1.00;;;;;;4954401;29;20912;-72
2022/03/03 06:14:39;;;;;;;0.97;0.50;;;1.90;1.00;;;;;;4946054;29;20459;-74
2022/03/03 06:17:09;;;;;;;0.50;0.10;;;1.80;1.00;;;;;;4955090;29;20997;-74
2022/03/03 06:19:41;;;;;;;0.50;0.10;;;1.80;1.00;;;;;;4954937;29;20471;-72
2022/03/03 06:22:12;;;;;;;0.50;0.20;;;1.90;1.00;;;;;;4960502;28;20458;-72
2022/03/03 06:24:40;;;;;;;0.50;0.10;;;1.90;1.00;;;;;;4963304;28;20835;-74
2022/03/03 06:27:09;;;;;;;0.50;0.10;;;1.90;1.00;;;;;;4947180;29;20439;-73
2022/03/03 06:29:39;;;;;;;11.50;1.80;;;1.90;1.00;;;;;;4962309;28;20488;-73
2022/03/03 06:32:08;;;;;;;2.63;2.30;;;;;;;;;;4952996;28;20460;-73
2022/03/03 06:34:37;;;;;;;0.50;0.10;;;1.90;1.00;;;;;;4956139;28;20497;-73
2022/03/03 06:37:06;;;;;;;0.50;0.10;;;1.90;1.00;;;;;;4966930;28;20546;-72
2022/03/03 06:39:35;;;;;;;0.50;0.10;;;1.90;1.00;;;;;;4975256;28;20462;-74
2022/03/03 06:42:03;;;;;;;0.50;0.10;;;2.00;1.00;;;;;;4972230;28;20478;-73
2022/03/03 06:44:31;;;;;;;0.50;0.10;;;2.00;1.00;;;;;;4955703;28;20944;-72
2022/03/03 06:47:00;;;;;;;0.50;0.10;;;2.00;1.00;;;;;;4947872;29;20444;-73
2022/03/03 06:49:28;;;;;;;1.70;1.33;;;2.10;1.00;;;;;;4945542;29;20482;-73
2022/03/03 06:51:58;;;;;;;0.87;0.87;;;2.20;1.00;;;;;;4944271;29;20578;-74
2022/03/03 06:54:26;;;;;;;0.60;0.57;;;2.30;99.90;;;;;;4938504;28;20582;-72
2022/03/03 06:56:58;;;;;;;3.63;1.90;;;2.30;99.90;;;;;;4952998;28;20443;-73
2022/03/03 06:59:30;;;;;;;0.50;0.20;;;3.40;99.90;;;;;;4949787;28;20599;-74
2022/03/03 07:01:59;;;;;;;0.70;0.60;;;2.30;99.90;;;;;;4950952;28;20539;-72
2022/03/03 07:04:29;;;;;;;1.10;1.00;;;2.30;99.90;;;;;;4949474;29;20435;-73
2022/03/03 07:06:57;;;;;;;0.97;0.90;;;2.20;99.90;;;;;;4948816;29;20526;-73
2022/03/03 07:09:25;;;;;;;0.50;0.20;;;2.20;99.90;;;;;;4948045;29;20538;-72
2022/03/03 07:11:54;;;;;;;0.50;0.10;;;2.30;99.90;;;;;;4949763;29;20611;-74
2022/03/03 07:14:23;;;;;;;1.20;1.13;;;2.30;99.90;;;;;;4946847;29;20489;-74
2022/03/03 07:16:59;;;;;;;0.50;0.10;;;2.40;99.90;;;;;;4946403;29;20456;-73
2022/03/03 07:19:48;;;;;;;0.50;0.10;;;2.40;99.90;;;;;;4963044;28;20562;-74
2022/03/03 07:22:19;;;;;;;0.87;0.50;;;2.50;99.90;;;;;;4959165;28;20806;-73
2022/03/03 07:24:52;;;;;;;0.50;0.10;;;2.50;99.90;;;;;;4965394;28;20543;-73
2022/03/03 07:27:22;;;;;;;6.83;3.40;;;2.50;99.90;;;;;;4964340;28;20521;-73
2022/03/03 07:29:56;;;;;;;0.50;0.13;;;2.50;99.90;;;;;;4977672;28;20486;-72
2022/03/03 07:32:33;;;;;;;0.60;0.10;;;2.60;99.90;;;;;;4969994;28;20626;-75
2022/03/03 07:35:06;;;;;;;1.80;0.77;;;2.60;99.90;;;;;;4966643;28;20463;-73
2022/03/03 07:37:41;;;;;;;0.60;0.30;;;2.60;99.90;;;;;;4972608;28;20450;-74
2022/03/03 07:40:11;;;;;;;0.60;0.27;;;2.70;99.90;;;;;;4977878;28;20541;-73
2022/03/03 07:42:40;;;;;;;0.50;0.10;;;2.70;99.90;;;;;;4961214;28;20485;-73
2022/03/03 07:45:10;;;;;;;0.50;0.30;;;2.80;99.90;;;;;;4977683;28;20447;-74
2022/03/03 07:47:39;;;;;;;0.80;0.60;;;2.80;99.90;;;;;;4979143;28;20455;-75
2022/03/03 07:50:08;;;;;;;1.70;1.07;;;2.90;99.90;;;;;;4978704;28;20480;-73
2022/03/03 07:52:37;;;;;;;0.50;0.30;;;3.00;99.90;;;;;;4961564;28;20680;-74
2022/03/03 07:55:06;;;;;;;4.27;4.13;;;2.90;99.90;;;;;;4940359;29;20493;-74
2022/03/03 07:57:39;;;;;;;0.50;0.10;;;3.10;99.90;;;;;;4939674;29;20447;-74
2022/03/03 08:00:13;;;;;;;0.50;0.20;;;3.20;99.90;;;;;;4942894;28;20475;-74
2022/03/03 08:02:42;;;;;;;0.50;0.10;;;3.30;99.90;;;;;;4962357;28;20961;-74
2022/03/03 08:05:11;;;;;;;0.50;0.10;;;3.30;99.90;;;;;;4967933;28;20444;-74
2022/03/03 08:07:42;;;;;;;0.50;0.10;;;3.40;99.90;;;;;;4975781;28;20455;-74
2022/03/03 08:10:12;;;;;;;0.50;0.20;;;3.40;99.90;;;;;;4976586;28;20789;-73
2022/03/03 08:12:42;;;;;;;0.50;0.20;;;3.50;99.90;;;;;;4962008;28;20799;-72
2022/03/03 08:15:13;;;;;;;1.20;1.03;;;3.40;99.90;;;;;;4960387;28;20493;-74
2022/03/03 08:17:44;;;;;;;0.50;0.10;;;3.40;99.90;;;;;;4961787;28;20443;-72
2022/03/03 08:20:12;;;;;;;0.50;0.10;;;3.50;99.90;;;;;;4945552;29;20503;-72
2022/03/03 08:22:40;;;;;;;0.63;0.37;;;3.50;99.90;;;;;;4943340;29;20927;-70
2022/03/03 08:25:10;;;;;;;0.50;0.20;;;3.60;99.90;;;;;;4946796;28;20484;-72
2022/03/03 08:27:40;;;;;;;0.60;0.40;;;3.60;99.90;;;;;;4963339;28;20540;-72
2022/03/03 08:30:09;;;;;;;0.57;0.20;;;3.70;99.90;;;;;;4956802;28;20454;-71
2022/03/03 08:32:41;;;;;;;0.70;0.57;;;3.80;99.90;;;;;;4956256;29;20471;-70
2022/03/03 08:35:14;;;;;;;0.50;0.20;;;3.80;99.90;;;;;;4956596;29;20456;-71
2022/03/03 08:37:44;;;;;;;0.50;0.10;;;3.80;99.90;;;;;;4955866;29;21286;-71
2022/03/03 08:40:15;;;;;;;0.90;0.73;;;3.90;99.90;;;;;;4965132;28;20626;-72
2022/03/03 08:42:48;;;;;;;3.37;1.90;;;3.90;99.90;;;;;;4961915;28;20497;-73
2022/03/03 08:45:19;;;;;;;0.70;0.60;;;4.00;99.90;;;;;;4951665;28;20454;-72
2022/03/03 08:47:54;;;;;;;0.57;0.30;;;4.00;99.90;;;;;;4964245;28;20470;-77
2022/03/03 08:50:30;;;;;;;0.50;0.10;;;4.10;99.90;;;;;;4950616;28;20476;-73
2022/03/03 08:52:59;;;;;;;0.50;0.10;;;4.20;99.90;;;;;;4959366;28;20487;-74
2022/03/03 08:55:28;;;;;;;0.50;0.10;;;4.20;99.90;;;;;;4947761;28;20491;-73
2022/03/03 08:57:58;;;;;;;0.50;0.10;;;4.30;99.90;;;;;;4964568;28;20945;-73
2022/03/03 09:00:27;;;;;;;0.57;0.10;;;4.40;99.90;;;;;;4967394;28;20500;-71
2022/03/03 09:02:57;;;;;;;0.50;0.20;;;4.50;99.90;;;;;;4957095;28;20494;-75
2022/03/03 09:05:25;;;;;;;0.50;0.10;;;4.60;99.90;;;;;;4971229;28;20455;-70
2022/03/03 09:07:53;;;;;;;1.93;0.93;;;4.60;99.90;;;;;;4967927;28;20544;-72
2022/03/03 09:10:21;;;;;;;0.50;0.10;;;4.60;99.90;;;;;;4970034;28;21034;-73
2022/03/03 09:12:49;;;;;;;0.50;0.10;;;4.70;99.90;;;;;;4954714;28;20490;-73
2022/03/03 09:15:17;;;;;;;0.50;0.10;;;4.70;99.90;;;;;;4974604;28;20452;-73
2022/03/03 09:17:46;;;;;;;1.00;0.50;;;;;;;;;;4961888;28;20929;-74
2022/03/03 09:20:16;;;;;;;0.50;0.10;;;4.90;99.90;;;;;;4964659;28;20483;-71
2022/03/03 09:22:45;;;;;;;0.50;0.10;;;5.00;99.90;;;;;;4965930;28;20575;-71
2022/03/03 09:25:13;;;;;;;0.60;0.10;;;5.10;99.90;;;;;;4958234;28;20461;-73
2022/03/03 09:27:41;;;;;;;0.60;0.37;;;5.10;99.90;;;;;;4969744;28;20560;-73
2022/03/03 09:30:11;;;;;;;0.50;0.10;;;5.20;99.90;;;;;;4975879;28;20443;-73
2022/03/03 09:32:40;;;;;;;0.50;0.10;;;5.30;99.90;;;;;;4959135;28;20504;-73
2022/03/03 09:35:08;;;;;;;0.50;0.10;;;5.30;99.90;;;;;;4945659;28;20853;-73
2022/03/03 09:37:39;;;;;;;0.60;0.10;;;5.50;99.90;;;;;;4960977;28;20492;-71
2022/03/03 09:40:09;;;;;;;0.50;0.10;;;5.60;99.90;;;;;;4968820;28;20465;-73
2022/03/03 09:42:37;;;;;;;0.60;0.30;;;5.70;99.90;;;;;;4964890;28;20575;-72
2022/03/03 09:45:08;;;;;;;0.60;0.20;;;5.70;99.90;;;;;;4962523;28;20455;-70
2022/03/03 09:47:36;;;;;;;0.50;0.10;;;5.80;99.90;;;;;;4956067;29;20535;-69
2022/03/03 09:50:05;;;;;;;0.50;0.10;;;6.00;99.90;;;;;;4957699;28;20449;-68
2022/03/03 09:52:34;;;;;;;0.50;0.10;;;6.00;99.90;;;;;;4964473;28;20480;-72
2022/03/03 09:55:05;;;;;;;0.60;0.20;;;6.10;99.90;;;;;;4955088;29;20532;-73
2022/03/03 09:57:35;;;;;;;0.50;0.10;;;6.20;99.90;;;;;;4963769;28;20501;-70
2022/03/03 10:00:05;;;;;;;0.50;0.10;;;6.50;99.90;;;;;;4969709;28;20979;-69
2022/03/03 10:02:34;;;;;;;0.60;0.20;;;6.40;99.90;;;;;;4978303;28;20492;-72
2022/03/03 10:05:03;;;;;;;0.60;0.50;;;6.40;99.90;;;;;;4966936;28;20544;-72
2022/03/03 10:07:31;;;;;;;0.70;0.40;;;6.60;99.90;;;;;;4976198;28;20540;-73
2022/03/03 10:10:10;;;;;;;0.50;0.10;;;6.70;99.90;;;;;;4976620;28;20514;-76
2022/03/03 10:12:45;;;;;;;6.83;2.30;;;6.80;99.90;;;;;;4968064;28;20487;-71
2022/03/03 10:15:14;;;;;;;0.60;0.10;;;6.90;99.90;;;;;;4957273;29;20492;-69
2022/03/03 10:17:42;;;;;;;0.50;0.10;;;5.60;99.90;;;;;;4957820;29;20450;-70
2022/03/03 10:20:11;;;;;;;0.53;0.10;;;6.90;99.90;;;;;;4956817;29;20459;-70
2022/03/03 10:22:43;;;;;;;0.60;0.10;;;7.00;99.90;;;;;;4957561;29;20497;-70
2022/03/03 10:25:13;;;;;;;1.63;1.53;;;7.10;99.90;;;;;;4958027;29;20460;-70
2022/03/03 10:27:42;;;;;;;0.60;0.10;;;7.10;99.90;;;;;;4947497;28;20475;-74
2022/03/03 10:30:11;;;;;;;0.50;0.10;;;7.20;99.90;;;;;;4963678;28;20459;-70
2022/03/03 10:32:40;;;;;;;0.60;0.20;;;;;;;;;;4974011;28;20522;-73
2022/03/03 10:35:15;;;;;;;0.50;0.10;;;7.40;99.90;;;;;;4969074;28;20459;-73
2022/03/03 10:37:44;;;;;;;0.60;0.10;;;7.40;99.90;;;;;;4966333;28;20475;-68
2022/03/03 10:40:14;;;;;;;0.60;0.40;;;7.60;99.90;;;;;;4970063;28;20507;-70
2022/03/03 10:42:50;;;;;;;0.60;0.10;;;7.60;99.90;;;;;;4968687;28;20478;-74
2022/03/03 10:45:21;;;;;;;0.60;0.10;;;7.70;99.90;;;;;;4957339;29;20452;-70
2022/03/03 10:48:00;;;;;;;0.60;0.10;;;7.70;99.90;;;;;;4972039;28;20540;-73
2022/03/03 10:50:45;;;;;;;0.60;0.20;;;7.80;99.90;;;;;;4943319;29;20479;-70
2022/03/03 10:53:16;;;;;;;0.60;0.10;;;7.80;99.90;;;;;;4947129;29;20532;-70
2022/03/03 10:56:00;;;;;;;0.60;0.10;;;7.90;99.90;;;;;;4958728;28;20464;-72
2022/03/03 10:58:46;;;;;;;0.60;0.10;;;8.10;99.90;;;;;;4964363;28;20465;-72
2022/03/03 11:01:15;;;;;;;0.60;0.10;;;8.20;99.90;;;;;;4964441;28;20460;-71
2022/03/03 11:03:49;;;;;;;0.60;0.17;;;8.10;99.90;;;;;;4972717;28;20457;-72
2022/03/03 11:06:24;;;;;;;0.60;0.10;;;8.30;99.90;;;;;;4958909;28;20454;-73
2022/03/03 11:08:53;;;;;;;0.60;0.10;;;8.30;99.90;;;;;;4960376;29;20485;-72
2022/03/03 11:11:23;;;;;;;0.60;0.10;;;8.30;99.90;;;;;;4962857;28;20453;-72
2022/03/03 11:13:53;;;;;;;0.60;0.10;;;8.30;99.90;;;;;;4969121;28;20801;-71
2022/03/03 11:16:23;;;;;;;0.60;0.10;;;8.30;99.90;;;;;;4959094;29;20560;-70
2022/03/03 11:18:51;;;;;;;0.60;0.10;;;8.50;99.90;;;;;;4960755;28;20505;-71
2022/03/03 11:21:20;;;;;;;0.60;0.20;;;8.60;99.90;;;;;;4966998;28;20553;-69
2022/03/03 11:23:59;;;;;;;0.60;0.10;;;;;;;;;;4950871;28;20490;-71
2022/03/03 11:26:30;;;;;;;0.60;0.10;;;8.80;99.90;;;;;;4933919;28;20511;-70
2022/03/03 11:29:03;;;;;;;0.60;0.10;;;9.30;99.90;;;;;;4960067;28;20469;-69
2022/03/03 11:31:34;;;;;;;0.60;0.10;;;8.80;99.90;;;;;;4976366;28;21046;-73
2022/03/03 11:34:29;;;;;;;0.60;0.10;;;8.90;99.90;;;;;;4938973;28;20477;-72
2022/03/03 11:37:08;;;;;;;0.60;0.10;;;9.00;99.90;;;;;;4954100;29;20451;-74
2022/03/03 11:39:45;;;;;;;0.60;0.10;;;9.00;99.90;;;;;;4954671;29;20675;-69
2022/03/03 11:42:31;;;;;;;0.60;0.10;;;9.10;99.90;;;;;;4958095;28;21028;-69
2022/03/03 11:45:16;;;;;;;0.60;0.20;;;9.30;99.90;;;;;;4970414;28;20446;-69
2022/03/03 11:47:46;;;;;;;0.70;0.43;;;9.30;99.90;;;;;;4957579;28;20458;-70
2022/03/03 11:50:20;;;;;;;0.60;0.10;;;9.30;99.90;;;;;;4958519;28;20438;-70
2022/03/03 11:52:52;;;;;;;1.00;0.53;;;9.40;99.90;;;;;;4942975;29;20931;-73
2022/03/03 11:55:34;;;;;;;0.70;0.63;;;9.40;99.90;;;;;;4940612;29;20865;-69
2022/03/03 11:58:06;;;;;;;2.57;1.40;;;9.40;99.90;;;;;;4941211;29;20495;-73
2022/03/03 12:00:39;;;;;;;7.73;2.87;;;9.40;99.90;;;;;;4941475;29;20452;-72
2022/03/03 12:03:09;;;;;;;0.60;0.40;;;;;;;;;;4949364;29;20558;-69
2022/03/03 12:05:50;;;;;;;0.60;0.10;;;9.40;99.90;;;;;;4959540;29;20457;-70
2022/03/03 12:08:33;;;;;;;0.60;0.10;;;9.40;99.90;;;;;;4962944;29;20666;-73
2022/03/03 12:11:07;;;;;;;1.60;1.50;;;9.40;99.90;;;;;;4958156;29;20530;-71
2022/03/03 12:13:44;;;;;;;0.60;0.10;;;9.50;99.90;;;;;;4949196;29;20542;-69
2022/03/03 12:16:19;;;;;;;0.90;0.40;;;9.60;99.90;;;;;;4950460;29;20891;-69
2022/03/03 12:18:48;;;;;;;1.17;1.07;;;9.60;99.90;;;;;;4962885;29;20462;-71
2022/03/03 12:21:28;;;;;;;0.60;0.10;;;9.70;99.90;;;;;;4963173;29;20873;-71
2022/03/03 12:24:34;;;;;;;0.80;0.43;;;9.70;99.90;;;;;;4962411;29;20497;-72
2022/03/03 12:27:15;;;;;;;0.60;0.10;;;9.80;99.90;;;;;;4964732;29;20941;-70
2022/03/03 12:30:00;;;;;;;1.13;0.67;;;9.90;99.90;;;;;;4961695;29;20454;-70
2022/03/03 12:32:47;;;;;;;0.60;0.20;;;9.90;99.90;;;;;;4963387;29;20482;-70
2022/03/03 12:35:28;;;;;;;0.60;0.17;;;9.90;99.90;;;;;;4952293;29;20467;-74
2022/03/03 12:37:59;;;;;;;0.60;0.17;;;10.00;99.90;;;;;;4946133;29;20519;-70
2022/03/03 12:40:29;;;;;;;1.07;0.97;;;10.00;99.90;;;;;;4941650;29;20590;-71
2022/03/03 12:42:58;;;;;;;0.70;0.40;;;;;;;;;;4942251;28;20931;-71
2022/03/03 12:45:30;;;;;;;0.70;0.67;;;10.10;99.90;;;;;;4968658;28;20817;-71
2022/03/03 12:47:59;;;;;;;0.60;0.23;;;10.20;99.90;;;;;;4976107;28;20533;-70
2022/03/03 12:50:29;;;;;;;2.83;2.50;;;10.30;99.90;;;;;;4957238;28;20459;-71
2022/03/03 12:53:00;;;;;;;0.60;0.30;;;10.30;99.90;;;;;;4957552;28;20486;-70
2022/03/03 12:55:31;;;;;;;0.60;0.10;;;10.30;99.90;;;;;;4956192;29;20455;-71
2022/03/03 12:58:03;;;;;;;0.60;0.10;;;10.30;99.90;;;;;;4968959;28;20474;-70
2022/03/03 13:00:37;;;;;;;0.60;0.10;;;10.40;99.90;;;;;;4976139;28;20447;-71
2022/03/03 13:03:08;;;;;;;0.60;0.20;;;10.40;99.90;;;;;;4963989;28;20470;-70
2022/03/03 13:05:44;;;;;;;0.63;0.27;;;10.50;99.90;;;;;;4955904;29;20459;-71
2022/03/03 13:08:23;;;;;;;0.60;0.40;;;10.60;99.90;;;;;;4955513;29;20451;-72
2022/03/03 13:10:52;;;;;;;0.60;0.10;;;10.60;99.90;;;;;;4956246;29;20446;-70
2022/03/03 13:13:25;;;;;;;0.60;0.10;;;10.60;99.90;;;;;;4955154;28;20490;-70
2022/03/03 13:15:53;;;;;;;0.60;0.20;;;10.70;99.90;;;;;;4951375;29;20456;-70